Time;durP1;ratioP1;P1;durP2;ratioP2;P2;SDS_P1;SDS_P2;PMS_P1;PMS_P2;Temp;Humidity;BMP_temperature;BMP_pressure;BME280_temperature;BME280_humidity;BME280_pressure;Samples;Min_cycle;Max_cycle;Signal;HPM_P1;HPM_P2
2022/03/16 00:02:08;;;;;;;;;;;;;;;4.67;59.17;100872.75;5071940;28;20419;-52
2022/03/16 00:04:34;;;;;;;;;;;;;;;4.96;59.00;100871.13;5072115;28;19919;-52
2022/03/16 00:06:59;;;;;;;;;;;;;;;5.93;54.80;100868.25;5072052;28;20378;-52
2022/03/16 00:09:24;;;;;;;;;;;;;;;5.35;57.41;100869.28;5072123;28;19908;-50
2022/03/16 00:11:50;;;;;;;;;;;;;;;5.02;59.04;100870.56;5071835;28;19914;-51
2022/03/16 00:14:16;;;;;;;;;;;;;;;4.97;59.32;100862.22;5071955;28;20430;-50
2022/03/16 00:16:41;;;;;;;;;;;;;;;4.79;59.66;100862.09;5067121;28;19912;-53
2022/03/16 00:19:06;;;;;;;;;;;;;;;5.61;56.96;100866.81;5051478;28;19991;-51
2022/03/16 00:21:32;;;;;;;;;;;;;;;5.80;56.54;100871.22;5051610;28;19912;-54
2022/03/16 00:23:59;;;;;;;;;;;;;;;5.24;58.13;100866.78;5051694;28;20006;-51
2022/03/16 00:26:24;;;;;;;;;;;;;;;4.96;59.38;100863.19;5066386;28;19981;-52
2022/03/16 00:28:49;;;;;;;;;;;;;;;4.88;59.03;100862.09;5071568;28;20268;-53
2022/03/16 00:31:15;;;;;;;;;;;;;;;4.81;60.35;100854.88;5071178;28;19915;-53
2022/03/16 00:33:40;;;;;;;;;;;;;;;4.72;61.10;100850.41;5072219;28;20006;-54
2022/03/16 00:36:05;;;;;;;;;;;;;;;5.82;58.10;100847.28;5072075;28;19948;-53
2022/03/16 00:38:31;;;;;;;;;;;;;;;5.68;57.25;100853.88;5071939;28;19934;-53
2022/03/16 00:40:56;;;;;;;;;;;;;;;5.28;59.56;100847.88;5071991;28;19912;-52
2022/03/16 00:43:22;;;;;;;;;;;;;;;5.01;59.60;100840.69;5071767;28;19915;-52
2022/03/16 00:45:47;;;;;;;;;;;;;;;5.01;60.51;100832.78;5072034;28;19909;-51
2022/03/16 00:48:12;;;;;;;;;;;;;;;5.30;59.25;100837.19;5072058;28;19908;-49
2022/03/16 00:50:37;;;;;;;;;;;;;;;5.84;56.43;100840.06;5062468;28;20379;-52
2022/03/16 00:53:03;;;;;;;;;;;;;;;5.25;59.32;100831.50;5051779;28;19955;-51
2022/03/16 00:55:28;;;;;;;;;;;;;;;5.20;60.19;100828.47;5051977;28;19909;-52
2022/03/16 00:57:53;;;;;;;;;;;;;;;4.88;61.58;100822.50;5051278;28;19920;-52
2022/03/16 01:00:19;;;;;;;;;;;;;;;4.88;61.95;100829.59;5070867;28;19958;-50
2022/03/16 01:02:44;;;;;;;;;;;;;;;4.69;61.38;100833.06;5071773;28;19966;-52
2022/03/16 01:05:09;;;;;;;;;;;;;;;5.22;59.96;100826.50;5071783;28;20320;-51
2022/03/16 01:07:35;;;;;;;;;;;;;;;5.79;59.28;100823.84;5071424;28;19950;-52
2022/03/16 01:10:00;;;;;;;;;;;;;;;5.36;59.97;100815.50;5071862;28;19908;-52
2022/03/16 01:12:26;;;;;;;;;;;;;;;5.10;61.25;100831.09;5071825;28;19908;-53
2022/03/16 01:14:51;;;;;;;;;;;;;;;4.99;61.55;100825.97;5071724;28;20427;-51
2022/03/16 01:17:16;;;;;;;;;;;;;;;4.83;61.79;100826.53;5071747;28;19919;-53
2022/03/16 01:19:41;;;;;;;;;;;;;;;6.05;58.87;100821.34;5071615;28;19908;-50
2022/03/16 01:22:07;;;;;;;;;;;;;;;5.48;58.99;100819.63;5071386;28;20359;-52
2022/03/16 01:24:33;;;;;;;;;;;;;;;5.32;61.00;100808.84;5071624;28;20311;-52
2022/03/16 01:26:58;;;;;;;;;;;;;;;4.96;60.51;100815.72;5071185;28;19916;-50
2022/03/16 01:29:25;;;;;;;;;;;;;;;4.84;61.15;100804.47;5071203;28;19921;-53
2022/03/16 01:31:54;;;;;;;;;;;;;;;5.84;58.36;100798.59;5071350;28;19912;-52
2022/03/16 01:34:20;;;;;;;;;;;;;;;5.41;60.49;100792.13;5071457;28;19975;-52
2022/03/16 01:36:46;;;;;;;;;;;;;;;4.92;60.92;100785.31;5071144;28;19912;-52
2022/03/16 01:39:12;;;;;;;;;;;;;;;4.76;62.32;100788.50;5071333;28;20381;-52
2022/03/16 01:41:37;;;;;;;;;;;;;;;4.77;62.23;100785.72;5071552;28;19981;-52
2022/03/16 01:44:03;;;;;;;;;;;;;;;5.57;58.86;100778.31;5071519;28;20407;-49
2022/03/16 01:46:28;;;;;;;;;;;;;;;5.55;59.34;100772.34;5071470;28;19915;-51
2022/03/16 01:48:53;;;;;;;;;;;;;;;5.06;61.04;100769.88;5075322;28;19927;-51
2022/03/16 01:51:20;;;;;;;;;;;;;;;4.82;62.15;100751.88;5060751;28;19908;-50
2022/03/16 01:53:46;;;;;;;;;;;;;;;4.89;61.23;100739.78;5055218;28;19909;-51
2022/03/16 01:56:11;;;;;;;;;;;;;;;5.48;58.82;100740.44;5070511;28;19916;-52
2022/03/16 01:58:36;;;;;;;;;;;;;;;5.11;59.40;100744.88;5075301;28;19920;-51
2022/03/16 02:01:01;;;;;;;;;;;;;;;5.04;60.38;100729.59;5075429;28;19924;-51
2022/03/16 02:03:27;;;;;;;;;;;;;;;5.02;59.87;100713.06;5075384;28;19912;-52
2022/03/16 02:05:53;;;;;;;;;;;;;;;4.85;62.20;100719.09;5074879;28;20336;-49
2022/03/16 02:08:18;;;;;;;;;;;;;;;4.97;60.92;100717.13;5075085;28;20288;-53
2022/03/16 02:10:44;;;;;;;;;;;;;;;4.90;60.17;100708.97;5075138;28;20034;-49
2022/03/16 02:13:10;;;;;;;;;;;;;;;4.82;61.59;100709.66;5074870;28;19908;-50
2022/03/16 02:15:35;;;;;;;;;;;;;;;4.79;61.31;100707.31;5074907;28;19908;-38
2022/03/16 02:18:01;;;;;;;;;;;;;;;4.92;60.30;100700.91;5075085;28;19912;-37
2022/03/16 02:20:27;;;;;;;;;;;;;;;4.90;61.29;100704.50;5056933;28;19985;-38
2022/03/16 02:22:59;;;;;;;;;;;;;;;4.98;60.25;100708.25;5074805;28;19923;-38
2022/03/16 02:25:25;;;;;;;;;;;;;;;4.93;61.56;100713.97;5074673;28;20004;-38
2022/03/16 02:27:53;;;;;;;;;;;;;;;4.58;62.27;100712.75;5074876;28;19913;-38
2022/03/16 02:30:20;;;;;;;;;;;;;;;4.91;61.59;100715.88;5061461;28;19908;-37
2022/03/16 02:32:46;;;;;;;;;;;;;;;5.06;60.62;100709.19;5053658;28;19917;-37
2022/03/16 02:35:11;;;;;;;;;;;;;;;4.71;61.49;100707.19;5054131;28;19908;-37
2022/03/16 02:37:37;;;;;;;;;;;;;;;4.49;61.81;100696.00;5053981;28;19996;-37
2022/03/16 02:40:03;;;;;;;;;;;;;;;4.54;63.33;100700.00;5053988;28;19916;-37
2022/03/16 02:42:28;;;;;;;;;;;;;;;5.48;60.14;100711.38;5054364;28;19912;-37
2022/03/16 02:44:53;;;;;;;;;;;;;;;5.26;60.51;100693.28;5054177;28;19928;-37
2022/03/16 02:47:19;;;;;;;;;;;;;;;4.93;61.67;100689.38;5054318;28;20257;-37
2022/03/16 02:49:45;;;;;;;;;;;;;;;4.59;63.52;100680.16;5054004;28;20383;-37
2022/03/16 02:52:11;;;;;;;;;;;;;;;4.35;64.30;100685.03;5055925;28;19908;-38
2022/03/16 02:54:36;;;;;;;;;;;;;;;4.60;63.02;100694.16;5074178;28;19919;-37
2022/03/16 02:57:01;;;;;;;;;;;;;;;5.49;59.46;100702.47;5074098;28;19975;-37
2022/03/16 02:59:27;;;;;;;;;;;;;;;4.93;60.98;100707.81;5073350;28;19919;-38
2022/03/16 03:01:52;;;;;;;;;;;;;;;4.38;61.87;100672.44;5073306;28;20380;-37
2022/03/16 03:04:17;;;;;;;;;;;;;;;4.44;62.50;100689.47;5074295;28;19908;-37
2022/03/16 03:06:43;;;;;;;;;;;;;;;4.25;63.06;100682.41;5074103;28;20342;-37
2022/03/16 03:09:08;;;;;;;;;;;;;;;5.30;60.17;100694.66;5074155;28;20417;-37
2022/03/16 03:11:33;;;;;;;;;;;;;;;4.68;62.39;100692.50;5073899;28;19947;-37
2022/03/16 03:13:59;;;;;;;;;;;;;;;4.19;63.00;100681.16;5074025;28;19915;-37
2022/03/16 03:16:24;;;;;;;;;;;;;;;3.91;63.54;100690.72;5073822;28;20583;-37
2022/03/16 03:18:49;;;;;;;;;;;;;;;4.09;64.46;100690.84;5073784;28;19912;-37
2022/03/16 03:21:15;;;;;;;;;;;;;;;4.04;65.24;100695.72;5073754;28;19974;-37
2022/03/16 03:23:40;;;;;;;;;;;;;;;4.20;65.04;100682.81;5074028;28;19951;-37
2022/03/16 03:26:05;;;;;;;;;;;;;;;4.26;63.74;100682.25;5074052;28;20282;-37
2022/03/16 03:28:31;;;;;;;;;;;;;;;4.13;63.78;100692.25;5073906;28;19965;-37
2022/03/16 03:30:56;;;;;;;;;;;;;;;4.03;64.84;100675.63;5066863;28;20368;-37
2022/03/16 03:33:21;;;;;;;;;;;;;;;4.04;64.50;100677.28;5053458;28;20023;-37
2022/03/16 03:35:48;;;;;;;;;;;;;;;4.12;64.90;100672.16;5053687;28;19913;-37
2022/03/16 03:38:14;;;;;;;;;;;;;;;4.06;65.21;100672.72;5053581;28;20372;-37
2022/03/16 03:40:39;;;;;;;;;;;;;;;4.06;65.30;100663.00;5053610;28;19909;-37
2022/03/16 03:43:05;;;;;;;;;;;;;;;3.93;65.56;100649.28;5053679;28;19909;-37
2022/03/16 03:45:31;;;;;;;;;;;;;;;3.91;65.13;100648.59;5053889;28;19908;-37
2022/03/16 03:47:56;;;;;;;;;;;;;;;4.01;65.40;100641.50;5052911;28;19908;-37
2022/03/16 03:50:22;;;;;;;;;;;;;;;3.90;65.87;100639.00;5053621;28;19909;-37
2022/03/16 03:52:47;;;;;;;;;;;;;;;3.90;65.44;100650.38;5053520;28;19913;-37
2022/03/16 03:55:12;;;;;;;;;;;;;;;4.86;62.41;100652.19;5053491;28;19912;-38
2022/03/16 03:57:38;;;;;;;;;;;;;;;4.83;62.55;100649.84;5053270;28;19916;-37
2022/03/16 04:00:04;;;;;;;;;;;;;;;4.55;63.97;100644.50;5053551;28;20296;-38
2022/03/16 04:02:29;;;;;;;;;;;;;;;4.31;64.57;100639.69;5052990;28;19909;-49
2022/03/16 04:04:54;;;;;;;;;;;;;;;4.24;64.72;100647.31;5052687;28;19909;-49
2022/03/16 04:07:19;;;;;;;;;;;;;;;4.27;65.46;100635.69;5053086;28;19908;-52
2022/03/16 04:09:46;;;;;;;;;;;;;;;5.26;61.15;100641.31;5052827;28;19992;-53
2022/03/16 04:12:12;;;;;;;;;;;;;;;4.58;62.79;100636.31;5053139;28;20277;-51
2022/03/16 04:14:37;;;;;;;;;;;;;;;4.51;63.65;100648.38;5052665;28;19913;-50
2022/03/16 04:17:02;;;;;;;;;;;;;;;4.33;63.40;100652.72;5052947;28;19908;-51
2022/03/16 04:19:28;;;;;;;;;;;;;;;4.26;63.53;100648.00;5052968;28;20011;-51
2022/03/16 04:21:53;;;;;;;;;;;;;;;4.34;64.02;100639.41;5053093;28;19919;-48
2022/03/16 04:24:18;;;;;;;;;;;;;;;4.20;64.78;100627.50;5052734;28;19920;-52
2022/03/16 04:26:43;;;;;;;;;;;;;;;4.15;69.18;100628.88;5052983;28;19917;-52
2022/03/16 04:29:09;;;;;;;;;;;;;;;4.39;65.04;100636.34;5052883;28;19908;-52
2022/03/16 04:31:34;;;;;;;;;;;;;;;4.09;66.01;100633.75;5052117;28;19927;-51
2022/03/16 04:33:59;;;;;;;;;;;;;;;3.79;66.54;100634.72;5052089;28;19944;-53
2022/03/16 04:36:26;;;;;;;;;;;;;;;3.99;66.97;100647.88;5052246;28;19984;-53
2022/03/16 04:38:51;;;;;;;;;;;;;;;3.90;67.45;100653.03;5051871;28;19912;-52
2022/03/16 04:41:16;;;;;;;;;;;;;;;3.85;67.44;100655.22;5051332;28;20388;-52
2022/03/16 04:43:42;;;;;;;;;;;;;;;3.83;68.04;100657.16;5051180;28;19995;-51
2022/03/16 04:46:07;;;;;;;;;;;;;;;4.81;64.13;100649.16;5051622;28;19913;-52
2022/03/16 04:48:32;;;;;;;;;;;;;;;4.47;63.42;100639.09;5050861;28;19916;-52
2022/03/16 04:50:58;;;;;;;;;;;;;;;4.32;64.34;100641.34;5051601;28;19909;-50
2022/03/16 04:53:23;;;;;;;;;;;;;;;4.14;66.68;100641.22;5051633;28;19909;-48
2022/03/16 04:55:48;;;;;;;;;;;;;;;3.86;66.36;100629.72;5052524;28;19916;-50
2022/03/16 04:58:13;;;;;;;;;;;;;;;4.84;62.79;100630.41;5052365;28;19912;-48
2022/03/16 05:00:39;;;;;;;;;;;;;;;4.26;64.95;100634.00;5058521;28;20275;-52
2022/03/16 05:03:05;;;;;;;;;;;;;;;9.44;93.38;100641.13;5071746;28;19908;-49
2022/03/16 05:05:30;;;;;;;;;;;;;;;13.31;66.29;100645.84;5070722;28;19958;-49
2022/03/16 05:07:56;;;;;;;;;;;;;;;15.39;52.87;100628.72;5071900;28;19909;-48
2022/03/16 05:10:22;;;;;;;;;;;;;;;13.46;39.85;100613.59;5071819;28;19916;-52
2022/03/16 05:12:47;;;;;;;;;;;;;;;10.01;46.56;100617.81;5071882;28;19912;-51
2022/03/16 05:15:17;;;;;;;;;;;;;;;7.82;51.81;100621.69;5071744;28;19908;-52
2022/03/16 05:17:43;;;;;;;;;;;;;;;6.20;56.19;100621.63;5052879;28;19920;-52
2022/03/16 05:20:09;;;;;;;;;;;;;;;5.52;58.87;100619.50;5051497;28;19913;-53
2022/03/16 05:22:50;;;;;;;;;;;;;;;4.69;61.68;100616.84;5050524;28;19920;-53
2022/03/16 05:25:17;;;;;;;;;;;;;;;4.33;63.15;100606.13;5056987;28;20061;-52
2022/03/16 05:27:43;;;;;;;;;;;;;;;4.11;63.65;100610.75;5071365;28;20312;-52
2022/03/16 05:30:09;;;;;;;;;;;;;;;4.00;65.15;100626.69;5070726;28;19908;-47
2022/03/16 05:32:34;;;;;;;;;;;;;;;3.80;66.37;100610.03;5070758;28;19923;-49
2022/03/16 05:35:00;;;;;;;;;;;;;;;3.90;65.57;100607.41;5052828;28;19909;-52
2022/03/16 05:37:25;;;;;;;;;;;;;;;3.81;65.97;100597.69;5031886;28;19913;-50
2022/03/16 05:39:50;;;;;;;;;;;;;;;3.75;65.88;100593.84;5031406;28;19916;-48
2022/03/16 05:42:16;;;;;;;;;;;;;;;3.59;66.57;100588.28;5031164;28;20365;-49
2022/03/16 05:44:41;;;;;;;;;;;;;;;3.46;67.07;100586.72;5030581;28;19916;-50
2022/03/16 05:47:06;;;;;;;;;;;;;;;3.59;66.63;100573.31;5030811;28;19932;-50
2022/03/16 05:49:32;;;;;;;;;;;;;;;3.65;67.19;100567.50;5030781;28;20380;-49
2022/03/16 05:51:57;;;;;;;;;;;;;;;3.57;66.86;100564.72;5028329;28;19917;-52
2022/03/16 05:54:22;;;;;;;;;;;;;;;3.57;67.21;100570.00;5028170;28;20392;-52
2022/03/16 05:56:47;;;;;;;;;;;;;;;3.56;67.20;100572.75;5029298;28;19982;-49
2022/03/16 05:59:13;;;;;;;;;;;;;;;3.72;67.03;100578.31;5029220;28;19921;-51
2022/03/16 06:01:38;;;;;;;;;;;;;;;3.39;68.28;100583.00;5029307;28;19920;-53
2022/03/16 06:04:04;;;;;;;;;;;;;;;3.46;68.47;100581.47;5028847;28;19909;-51
2022/03/16 06:06:30;;;;;;;;;;;;;;;3.56;67.38;100572.75;5041449;28;19909;-52
2022/03/16 06:08:56;;;;;;;;;;;;;;;3.89;66.98;100580.25;5049853;28;19991;-52
2022/03/16 06:11:21;;;;;;;;;;;;;;;3.77;67.18;100578.75;5050334;28;20074;-52
2022/03/16 06:13:47;;;;;;;;;;;;;;;3.67;66.52;100586.59;5050647;28;19940;-53
2022/03/16 06:16:12;;;;;;;;;;;;;;;3.78;67.03;100580.38;5050384;28;19909;-52
2022/03/16 06:18:37;;;;;;;;;;;;;;;3.99;65.94;100576.78;5050592;28;19974;-51
2022/03/16 06:21:02;;;;;;;;;;;;;;;3.89;66.08;100574.16;5050588;28;20375;-51
2022/03/16 06:23:28;;;;;;;;;;;;;;;3.98;66.39;100585.63;5050459;28;19923;-50
2022/03/16 06:25:53;;;;;;;;;;;;;;;3.86;67.06;100579.69;5050114;28;19917;-50
2022/03/16 06:28:18;;;;;;;;;;;;;;;3.87;66.80;100571.66;5050327;28;19908;-49
2022/03/16 06:30:43;;;;;;;;;;;;;;;3.86;67.08;100571.78;5050402;28;19915;-53
2022/03/16 06:33:09;;;;;;;;;;;;;;;3.79;67.06;100573.31;5051824;28;20012;-53
2022/03/16 06:35:34;;;;;;;;;;;;;;;3.77;67.21;100565.56;5054311;28;20396;-52
2022/03/16 06:37:59;;;;;;;;;;;;;;;3.56;67.46;100559.59;5054163;28;20357;-51
2022/03/16 06:40:25;;;;;;;;;;;;;;;3.72;67.71;100557.25;5053727;28;20431;-49
2022/03/16 06:42:55;;;;;;;;;;;;;;;3.91;67.33;100567.75;5053486;28;19909;-49
2022/03/16 06:45:21;;;;;;;;;;;;;;;4.01;66.92;100569.56;5053716;28;19909;-54
2022/03/16 06:47:46;;;;;;;;;;;;;;;3.82;67.16;100562.50;5053819;28;19917;-52
2022/03/16 06:50:12;;;;;;;;;;;;;;;3.92;67.18;100564.19;5053450;28;19909;-50
2022/03/16 06:52:39;;;;;;;;;;;;;;;3.68;68.30;100559.31;5053633;28;19948;-52
2022/03/16 06:55:05;;;;;;;;;;;;;;;3.75;67.83;100558.75;5053683;28;19915;-54
2022/03/16 06:57:30;;;;;;;;;;;;;;;3.73;68.07;100556.25;5053630;28;19917;-51
2022/03/16 06:59:55;;;;;;;;;;;;;;;3.88;67.36;100549.63;5053236;28;19909;-48
2022/03/16 07:02:21;;;;;;;;;;;;;;;3.91;67.30;100551.16;5053319;28;19970;-52
2022/03/16 07:04:46;;;;;;;;;;;;;;;3.90;67.75;100550.31;5053156;28;19999;-49
2022/03/16 07:07:12;;;;;;;;;;;;;;;4.05;67.52;100552.50;5071746;28;19915;-52
2022/03/16 07:09:37;;;;;;;;;;;;;;;4.14;67.19;100546.38;5073426;28;20433;-52
2022/03/16 07:12:02;;;;;;;;;;;;;;;4.11;67.22;100555.41;5073167;28;19908;-52
2022/03/16 07:14:30;;;;;;;;;;;;;;;3.95;67.97;100557.78;5059199;28;20414;-52
2022/03/16 07:16:56;;;;;;;;;;;;;;;4.60;65.86;100557.06;5052626;28;19912;-54
2022/03/16 07:19:22;;;;;;;;;;;;;;;4.70;65.15;100550.78;5053357;28;20346;-52
2022/03/16 07:21:47;;;;;;;;;;;;;;;4.48;65.50;100549.34;5053311;28;20241;-51
2022/03/16 07:24:12;;;;;;;;;;;;;;;4.30;65.95;100548.41;5052975;28;19919;-52
2022/03/16 07:26:39;;;;;;;;;;;;;;;4.47;66.06;100537.16;5069836;28;19921;-51
2022/03/16 07:29:04;;;;;;;;;;;;;;;4.22;66.77;100541.22;5073128;28;19962;-53
2022/03/16 07:31:29;;;;;;;;;;;;;;;4.04;67.11;100540.31;5073058;28;19944;-47
2022/03/16 07:33:55;;;;;;;;;;;;;;;4.18;66.86;100541.66;5072684;28;19909;-50
2022/03/16 07:36:20;;;;;;;;;;;;;;;4.01;66.92;100540.59;5073128;28;20037;-52
2022/03/16 07:38:46;;;;;;;;;;;;;;;3.90;67.26;100537.16;5072777;28;20364;-52
2022/03/16 07:41:11;;;;;;;;;;;;;;;3.98;67.56;100539.09;5072565;28;19915;-53
2022/03/16 07:43:36;;;;;;;;;;;;;;;4.14;66.56;100543.75;5072785;28;20436;-52
2022/03/16 07:46:03;;;;;;;;;;;;;;;4.30;66.50;100535.25;5071928;28;19908;-52
2022/03/16 07:48:28;;;;;;;;;;;;;;;4.64;65.36;100539.97;5072429;28;19919;-49
2022/03/16 07:50:53;;;;;;;;;;;;;;;4.68;64.00;100531.66;5072526;28;19912;-51
2022/03/16 07:53:19;;;;;;;;;;;;;;;4.45;64.90;100538.25;5072345;28;19998;-51
2022/03/16 07:55:49;;;;;;;;;;;;;;;4.50;64.58;100536.03;5072493;28;19908;-52
2022/03/16 07:58:14;;;;;;;;;;;;;;;4.35;65.13;100534.81;5072378;28;19947;-49
2022/03/16 08:00:39;;;;;;;;;;;;;;;4.48;65.02;100536.16;5072603;28;19943;-49
2022/03/16 08:03:05;;;;;;;;;;;;;;;4.47;65.15;100536.31;5072343;28;20113;-53
2022/03/16 08:05:30;;;;;;;;;;;;;;;4.61;65.13;100538.47;5067950;28;19909;-51
2022/03/16 08:07:56;;;;;;;;;;;;;;;4.68;64.98;100533.44;5052518;28;19908;-51
2022/03/16 08:10:21;;;;;;;;;;;;;;;4.83;65.18;100536.44;5052458;28;20368;-52
2022/03/16 08:12:47;;;;;;;;;;;;;;;4.78;64.30;100534.25;5052618;28;19970;-53
2022/03/16 08:15:12;;;;;;;;;;;;;;;4.75;64.80;100534.53;5052423;28;20313;-53
2022/03/16 08:17:37;;;;;;;;;;;;;;;4.44;64.99;100531.34;5051848;28;20407;-52
2022/03/16 08:20:03;;;;;;;;;;;;;;;4.66;64.02;100530.97;5052162;28;19915;-50
2022/03/16 08:22:29;;;;;;;;;;;;;;;4.85;63.45;100530.00;5051785;28;19993;-52
2022/03/16 08:24:55;;;;;;;;;;;;;;;5.01;62.70;100524.13;5052012;28;19920;-50
2022/03/16 08:27:21;;;;;;;;;;;;;;;4.98;62.52;100526.22;5033977;28;19912;-53
2022/03/16 08:29:47;;;;;;;;;;;;;;;5.16;61.16;100523.59;5051820;28;19909;-52
2022/03/16 08:32:12;;;;;;;;;;;;;;;5.41;59.60;100517.59;5052473;28;19978;-54
2022/03/16 08:34:37;;;;;;;;;;;;;;;5.31;60.18;100523.91;5052175;28;20011;-52
2022/03/16 08:37:03;;;;;;;;;;;;;;;5.42;61.35;100515.78;5051774;28;20257;-49
2022/03/16 08:39:29;;;;;;;;;;;;;;;5.67;60.71;100508.88;5051316;28;19978;-51
2022/03/16 08:41:54;;;;;;;;;;;;;;;6.01;60.31;100510.81;5051717;28;19909;-50
2022/03/16 08:44:20;;;;;;;;;;;;;;;5.83;60.78;100516.94;5051739;28;19951;-52
2022/03/16 08:46:46;;;;;;;;;;;;;;;5.99;60.13;100515.44;5051521;28;20007;-53
2022/03/16 08:49:11;;;;;;;;;;;;;;;6.14;60.43;100521.00;5052149;28;20000;-52
2022/03/16 08:51:36;;;;;;;;;;;;;;;5.96;60.27;100507.81;5051653;28;20372;-53
2022/03/16 08:54:02;;;;;;;;;;;;;;;6.13;58.10;100504.31;5051177;28;19909;-51
2022/03/16 08:56:27;;;;;;;;;;;;;;;7.25;55.06;100507.69;5050363;28;19913;-49
2022/03/16 08:58:52;;;;;;;;;;;;;;;6.99;56.22;100502.53;5051481;28;19919;-49
2022/03/16 09:01:17;;;;;;;;;;;;;;;6.68;56.81;100503.06;5051464;28;19920;-51
2022/03/16 09:03:43;;;;;;;;;;;;;;;6.57;57.06;100511.31;5051301;28;19909;-53
2022/03/16 09:06:08;;;;;;;;;;;;;;;6.51;57.41;100494.28;5061234;28;19912;-50
2022/03/16 09:08:34;;;;;;;;;;;;;;;7.39;55.62;100500.94;5071531;28;20401;-52
2022/03/16 09:10:59;;;;;;;;;;;;;;;7.83;52.79;100497.97;5071151;28;19912;-49
2022/03/16 09:13:24;;;;;;;;;;;;;;;7.46;53.10;100501.94;5071202;28;20038;-53
2022/03/16 09:15:51;;;;;;;;;;;;;;;7.19;54.16;100514.47;5069173;28;19916;-51
2022/03/16 09:18:18;;;;;;;;;;;;;;;7.03;55.44;100509.97;5050699;28;19948;-53
2022/03/16 09:20:44;;;;;;;;;;;;;;;6.78;56.02;100516.19;5051353;28;19909;-52
2022/03/16 09:23:10;;;;;;;;;;;;;;;7.04;56.00;100514.28;5051047;28;20375;-50
2022/03/16 09:25:35;;;;;;;;;;;;;;;7.55;54.23;100510.72;5050983;28;19940;-50
2022/03/16 09:28:01;;;;;;;;;;;;;;;7.97;52.26;100507.06;5051132;28;19909;-50
2022/03/16 09:30:26;;;;;;;;;;;;;;;7.76;51.27;100500.44;5051072;28;19991;-52
2022/03/16 09:32:57;;;;;;;;;;;;;;;7.69;51.42;100499.47;5051001;28;19909;-53
2022/03/16 09:35:23;;;;;;;;;;;;;;;7.65;50.91;100503.41;5050770;28;19915;-52
2022/03/16 09:37:50;;;;;;;;;;;;;;;7.30;51.62;100497.44;5050955;28;19917;-48
2022/03/16 09:40:15;;;;;;;;;;;;;;;8.19;49.96;100493.09;5051303;28;19991;-51
2022/03/16 09:42:42;;;;;;;;;;;;;;;7.92;50.00;100485.53;5050889;28;20313;-48
2022/03/16 09:45:08;;;;;;;;;;;;;;;7.51;51.59;100486.38;5050753;28;19963;-49
2022/03/16 09:47:34;;;;;;;;;;;;;;;7.47;52.40;100484.25;5051375;28;19909;-52
2022/03/16 09:49:59;;;;;;;;;;;;;;;7.67;51.80;100479.41;5051040;28;20342;-51
2022/03/16 09:52:26;;;;;;;;;;;;;;;7.53;52.36;100472.97;5050738;28;20400;-49
2022/03/16 09:54:52;;;;;;;;;;;;;;;8.16;51.01;100463.44;5050610;28;19990;-52
2022/03/16 09:57:17;;;;;;;;;;;;;;;8.94;47.71;100461.81;5051060;28;19959;-49
2022/03/16 09:59:43;;;;;;;;;;;;;;;8.38;48.72;100468.00;5051144;28;19944;-49
2022/03/16 10:02:14;;;;;;;;;;;;;;;8.34;48.59;100456.09;5051000;28;20261;-48
2022/03/16 10:04:41;;;;;;;;;;;;;;;8.02;48.80;100462.31;5051045;28;19919;-50
2022/03/16 10:07:06;;;;;;;;;;;;;;;8.08;49.60;100459.00;5068478;28;19915;-52
2022/03/16 10:15:05;;;;;;;;;;;;;;;8.29;48.43;100442.53;5074739;28;19958;-37
2022/03/16 10:17:43;;;;;;;;;;;;;;;8.01;48.20;100442.09;5058185;28;20007;-38
2022/03/16 10:20:08;;;;;;;;;;;;;;;8.11;48.19;100431.31;5054450;28;19912;-37
2022/03/16 10:22:38;;;;;;;;;;;;;;;8.20;47.84;100435.59;5054520;28;20296;-37
2022/03/16 10:25:04;;;;;;;;;;;;;;;8.20;48.65;100436.41;5054217;28;20011;-37
2022/03/16 10:27:30;;;;;;;;;;;;;;;8.25;48.62;100432.44;5054262;28;20390;-38
2022/03/16 10:29:56;;;;;;;;;;;;;;;8.32;47.15;100423.63;5036252;28;20277;-39
2022/03/16 10:32:22;;;;;;;;;;;;;;;8.37;47.31;100433.72;5053971;28;19916;-37
2022/03/16 10:34:55;;;;;;;;;;;;;;;8.31;47.56;100437.06;5054193;28;19979;-37
2022/03/16 10:37:21;;;;;;;;;;;;;;;8.06;48.14;100434.47;5053861;28;20376;-39
2022/03/16 10:39:49;;;;;;;;;;;;;;;7.89;49.04;100438.16;5053641;28;19947;-37
2022/03/16 10:47:59;;;;;;;;;;;;;;;8.79;46.51;100413.94;5053902;28;19919;-50
2022/03/16 10:50:25;;;;;;;;;;;;;;;8.11;48.24;100407.44;5053931;28;19909;-49
2022/03/16 10:52:51;;;;;;;;;;;;;;;8.05;48.12;100414.25;5053759;28;19916;-50
2022/03/16 10:55:20;;;;;;;;;;;;;;;7.91;49.01;100414.97;5053375;28;19986;-50
2022/03/16 10:57:48;;;;;;;;;;;;;;;8.05;48.99;100403.66;5053455;28;19912;-51
2022/03/16 11:00:14;;;;;;;;;;;;;;;8.66;47.90;100395.13;5053521;28;19908;-50
2022/03/16 11:02:40;;;;;;;;;;;;;;;8.64;47.59;100390.00;5053324;28;19909;-52
2022/03/16 11:05:06;;;;;;;;;;;;;;;8.43;48.17;100395.91;5054293;28;19999;-51
2022/03/16 11:07:32;;;;;;;;;;;;;;;8.43;48.83;100393.25;5073320;28;19969;-54
2022/03/16 11:09:57;;;;;;;;;;;;;;;8.39;48.49;100391.91;5073361;28;20368;-51
2022/03/16 11:15:07;;;;;;;;;;;;;;;9.27;47.02;100398.69;5073101;28;19965;-51
2022/03/16 11:17:34;;;;;;;;;;;;;;;9.38;45.49;100390.25;5056329;28;20352;-52
2022/03/16 11:20:02;;;;;;;;;;;;;;;8.81;46.63;100385.41;5051667;28;19912;-51
2022/03/16 11:22:29;;;;;;;;;;;;;;;8.71;46.95;100382.97;5053105;28;19964;-52
2022/03/16 11:24:58;;;;;;;;;;;;;;;8.42;48.23;100375.69;5052937;28;20369;-50
2022/03/16 11:27:40;;;;;;;;;;;;;;;8.07;48.91;100377.78;5052826;28;19947;-51
2022/03/16 11:30:19;;;;;;;;;;;;;;;8.64;48.00;100376.72;5052978;28;20407;-52
2022/03/16 11:32:46;;;;;;;;;;;;;;;9.15;46.70;100384.16;5052796;28;19912;-50
2022/03/16 11:35:16;;;;;;;;;;;;;;;9.02;46.96;100381.28;5052858;28;19909;-52
2022/03/16 11:37:45;;;;;;;;;;;;;;;8.51;48.18;100381.78;5052484;28;19912;-51
2022/03/16 11:40:15;;;;;;;;;;;;;;;8.26;49.33;100376.56;5052649;28;19909;-50
2022/03/16 11:42:43;;;;;;;;;;;;;;;8.12;49.42;100383.41;5052465;28;20020;-50
2022/03/16 11:45:27;;;;;;;;;;;;;;;8.20;49.52;100369.31;5053065;28;19912;-51
2022/03/16 11:47:52;;;;;;;;;;;;;;;9.29;47.07;100367.47;5052459;28;19946;-50
2022/03/16 11:50:19;;;;;;;;;;;;;;;8.70;47.99;100360.13;5052861;28;19921;-51
2022/03/16 11:53:00;;;;;;;;;;;;;;;8.59;48.68;100363.19;5052482;28;19905;-52
2022/03/16 11:55:39;;;;;;;;;;;;;;;8.39;48.94;100358.25;5052043;28;20004;-51
2022/03/16 11:58:17;;;;;;;;;;;;;;;8.27;49.98;100346.41;5052257;28;19974;-52
2022/03/16 12:00:44;;;;;;;;;;;;;;;8.08;50.53;100362.75;5052484;28;19915;-52
2022/03/16 12:03:18;;;;;;;;;;;;;;;8.50;49.76;100354.44;5052349;28;20399;-48
2022/03/16 12:06:02;;;;;;;;;;;;;;;8.75;48.50;100359.59;5058688;28;19946;-49
2022/03/16 12:08:32;;;;;;;;;;;;;;;8.20;50.24;100359.50;5072236;28;20358;-48
2022/03/16 12:13:42;;;;;;;;;;;;;;;8.09;51.65;100359.06;5072726;28;19914;-49
2022/03/16 12:16:08;;;;;;;;;;;;;;;8.33;51.13;100369.56;5066928;28;19908;-53
2022/03/16 12:18:38;;;;;;;;;;;;;;;8.96;48.69;100349.13;5033908;28;19920;-50
2022/03/16 12:21:06;;;;;;;;;;;;;;;8.85;48.67;100349.53;5052365;28;19927;-50
2022/03/16 12:23:58;;;;;;;;;;;;;;;8.30;49.95;100332.81;5051908;28;19956;-51
2022/03/16 12:26:24;;;;;;;;;;;;;;;8.39;51.22;100341.53;5051918;28;19923;-51
2022/03/16 12:28:55;;;;;;;;;;;;;;;8.35;51.40;100354.31;5052045;28;19909;-52
2022/03/16 12:31:21;;;;;;;;;;;;;;;8.39;51.62;100341.53;5051906;28;19932;-52
2022/03/16 12:33:57;;;;;;;;;;;;;;;9.64;48.03;100338.56;5051912;28;20377;-52
2022/03/16 12:36:26;;;;;;;;;;;;;;;9.04;49.31;100347.41;5059162;28;19908;-51
2022/03/16 12:38:55;;;;;;;;;;;;;;;8.82;49.41;100338.47;5071703;28;20439;-52
2022/03/16 12:44:11;;;;;;;;;;;;;;;8.75;49.48;100341.00;5071837;28;19992;-54
2022/03/16 12:46:39;;;;;;;;;;;;;;;8.79;49.14;100327.19;5071099;28;19939;-48
2022/03/16 12:49:06;;;;;;;;;;;;;;;9.63;47.91;100336.88;5071753;28;19908;-48
2022/03/16 12:51:34;;;;;;;;;;;;;;;9.70;46.92;100329.03;5071824;28;19915;-50
2022/03/16 12:54:00;;;;;;;;;;;;;;;9.51;47.27;100333.88;5054869;28;19995;-51
2022/03/16 12:56:25;;;;;;;;;;;;;;;8.84;48.36;100296.66;5052037;28;19978;-48
2022/03/16 12:58:54;;;;;;;;;;;;;;;8.67;49.24;100339.22;5051853;28;19913;-49
2022/03/16 13:01:20;;;;;;;;;;;;;;;8.80;48.73;100334.16;5051690;28;19920;-50